createdAt,value
2018-09-17T00:01:56.775Z,14.30
2018-09-17T00:04:25.344Z,14.30
2018-09-17T00:06:53.900Z,14.30
2018-09-17T00:09:22.422Z,14.20
2018-09-17T00:11:50.949Z,14.20
2018-09-17T00:14:19.529Z,14.20
2018-09-17T00:16:48.121Z,14.20
2018-09-17T00:19:16.669Z,14.10
2018-09-17T00:21:45.267Z,14.10
2018-09-17T00:24:13.823Z,14.10
2018-09-17T00:26:42.352Z,14.10
2018-09-17T00:29:10.932Z,14.10
2018-09-17T00:31:39.455Z,14.10
2018-09-17T00:34:08.006Z,14.10
2018-09-17T00:36:36.532Z,14.10
2018-09-17T00:39:09.481Z,14.10
2018-09-17T00:41:37.994Z,14.10
2018-09-17T00:44:06.628Z,14.10
2018-09-17T00:46:35.644Z,14.20
2018-09-17T00:49:04.189Z,14.20
2018-09-17T00:51:32.806Z,14.20
2018-09-17T00:54:01.425Z,14.20
2018-09-17T00:56:30.036Z,14.20
2018-09-17T00:58:58.595Z,14.10
2018-09-17T01:01:27.144Z,14.10
2018-09-17T01:03:55.687Z,14.10
2018-09-17T01:06:24.233Z,14.10
2018-09-17T01:08:52.796Z,14.00
2018-09-17T01:11:21.333Z,14.00
2018-09-17T01:13:49.895Z,14.00
2018-09-17T01:16:18.433Z,13.90
2018-09-17T01:18:47.061Z,13.90
2018-09-17T01:21:15.578Z,13.90
2018-09-17T01:23:44.124Z,13.80
2018-09-17T01:26:12.653Z,13.80
2018-09-17T01:28:41.216Z,13.70
2018-09-17T01:31:09.848Z,13.70
2018-09-17T01:33:38.412Z,13.60
2018-09-17T01:36:07.247Z,13.60
2018-09-17T01:38:35.803Z,13.50
2018-09-17T01:41:04.439Z,13.50
2018-09-17T01:43:33.047Z,13.40
2018-09-17T01:46:01.646Z,13.40
2018-09-17T01:48:30.829Z,13.30
2018-09-17T01:50:59.351Z,13.30
2018-09-17T01:53:27.912Z,13.20
2018-09-17T01:55:56.460Z,13.20
2018-09-17T01:58:24.991Z,13.10
2018-09-17T02:00:53.558Z,13.10
2018-09-17T02:03:22.125Z,13.00
2018-09-17T02:05:50.688Z,13.00
2018-09-17T02:08:19.228Z,13.00
2018-09-17T02:10:47.787Z,12.90
2018-09-17T02:13:16.390Z,13.00
2018-09-17T02:15:45.065Z,12.90
2018-09-17T02:18:13.596Z,12.90
2018-09-17T02:20:42.128Z,12.90
2018-09-17T02:23:10.658Z,12.80
2018-09-17T02:25:39.236Z,12.80
2018-09-17T02:28:07.772Z,12.80
2018-09-17T02:30:36.359Z,12.70
2018-09-17T02:33:04.890Z,12.70
2018-09-17T02:35:33.461Z,12.70
2018-09-17T02:38:02.027Z,12.60
2018-09-17T02:40:30.644Z,12.60
2018-09-17T02:42:59.212Z,12.60
2018-09-17T02:45:27.813Z,12.60
2018-09-17T02:47:56.356Z,12.60
2018-09-17T02:50:24.892Z,12.60
2018-09-17T02:52:53.449Z,12.50
2018-09-17T02:55:22.025Z,12.60
2018-09-17T02:57:50.603Z,12.50
2018-09-17T03:00:20.963Z,12.50
2018-09-17T03:02:51.236Z,12.50
2018-09-17T03:05:19.901Z,12.50
2018-09-17T03:07:48.511Z,12.40
2018-09-17T03:10:17.156Z,12.40
2018-09-17T03:12:45.738Z,12.30
2018-09-17T03:15:25.687Z,12.30
2018-09-17T03:17:54.216Z,12.30
2018-09-17T03:20:22.914Z,12.20
2018-09-17T03:22:51.456Z,12.20
2018-09-17T03:25:20.009Z,12.20
2018-09-17T03:27:48.531Z,12.20
2018-09-17T03:30:17.091Z,12.20
2018-09-17T03:32:45.657Z,12.20
2018-09-17T03:35:14.244Z,12.20
2018-09-17T03:37:42.783Z,12.20
2018-09-17T03:40:11.339Z,12.20
2018-09-17T03:42:39.900Z,12.20
2018-09-17T03:45:08.538Z,12.20
2018-09-17T03:47:37.073Z,12.20
2018-09-17T03:50:05.713Z,12.20
2018-09-17T03:52:34.817Z,12.20
2018-09-17T03:55:03.375Z,12.10
2018-09-17T03:57:31.908Z,12.10
2018-09-17T04:00:00.435Z,12.10
2018-09-17T04:02:28.993Z,12.10
2018-09-17T04:04:57.524Z,12.10
2018-09-17T04:07:26.095Z,12.10
2018-09-17T04:09:54.626Z,12.00
2018-09-17T04:12:23.187Z,12.00
2018-09-17T04:14:51.748Z,12.00
2018-09-17T04:17:20.291Z,12.00
2018-09-17T04:19:48.846Z,11.90
2018-09-17T04:22:17.447Z,11.90
2018-09-17T04:24:46.092Z,11.80
2018-09-17T04:27:14.641Z,11.80
2018-09-17T04:29:43.191Z,11.70
2018-09-17T04:32:11.775Z,11.70
2018-09-17T04:34:41.021Z,11.70
2018-09-17T04:37:09.590Z,11.60
2018-09-17T04:39:38.212Z,11.60
2018-09-17T04:42:07.053Z,11.60
2018-09-17T04:44:35.608Z,11.50
2018-09-17T04:47:04.235Z,11.50
2018-09-17T04:49:32.782Z,11.40
2018-09-17T04:52:01.352Z,11.40
2018-09-17T04:54:30.792Z,11.40
2018-09-17T04:56:59.353Z,11.40
2018-09-17T04:59:27.872Z,11.40
2018-09-17T05:01:56.460Z,11.30
2018-09-17T05:04:25.041Z,11.30
2018-09-17T05:06:53.605Z,11.30
2018-09-17T05:09:22.164Z,11.30
2018-09-17T05:11:50.755Z,11.30
2018-09-17T05:14:19.294Z,11.30
2018-09-17T05:16:47.837Z,11.30
2018-09-17T05:19:17.296Z,11.30
2018-09-17T05:21:45.865Z,11.30
2018-09-17T05:24:14.492Z,11.30
2018-09-17T05:26:43.405Z,11.40
2018-09-17T05:29:11.950Z,11.40
2018-09-17T05:31:40.479Z,11.50
2018-09-17T05:34:09.453Z,11.60
2018-09-17T05:36:37.985Z,11.70
2018-09-17T05:39:09.583Z,11.70
2018-09-17T05:41:38.391Z,11.80
2018-09-17T05:44:07.156Z,11.90
2018-09-17T05:46:36.053Z,12.00
2018-09-17T05:49:04.652Z,12.10
2018-09-17T05:51:34.209Z,12.10
2018-09-17T05:54:02.822Z,12.20
2018-09-17T05:56:31.367Z,12.30
2018-09-17T05:58:59.923Z,12.40
2018-09-17T06:01:28.462Z,12.50
2018-09-17T06:03:57.120Z,12.60
2018-09-17T06:06:26.514Z,12.70
2018-09-17T06:08:55.205Z,12.80
2018-09-17T06:11:23.785Z,12.80
2018-09-17T06:13:52.480Z,12.90
2018-09-17T06:16:21.148Z,13.00
2018-09-17T06:18:49.713Z,13.10
2018-09-17T06:21:18.293Z,13.20
2018-09-17T06:23:46.849Z,13.30
2018-09-17T06:26:15.369Z,13.40
2018-09-17T06:28:43.929Z,13.50
2018-09-17T06:31:12.472Z,13.60
2018-09-17T06:33:41.061Z,13.80
2018-09-17T06:36:09.640Z,13.90
2018-09-17T06:38:38.173Z,14.00
2018-09-17T06:41:06.770Z,14.10
2018-09-17T06:43:35.324Z,14.30
2018-09-17T06:46:03.903Z,14.40
2018-09-17T06:48:32.474Z,14.60
2018-09-17T06:51:00.996Z,14.70
2018-09-17T06:53:29.554Z,14.90
2018-09-17T06:55:58.564Z,15.00
2018-09-17T06:58:27.273Z,15.20
2018-09-17T07:00:55.891Z,15.30
2018-09-17T07:03:24.533Z,15.50
2018-09-17T07:05:53.121Z,15.60
2018-09-17T07:08:21.677Z,15.80
2018-09-17T07:10:50.242Z,15.90
2018-09-17T07:13:18.781Z,16.00
2018-09-17T07:15:47.490Z,16.20
2018-09-17T07:18:16.045Z,16.30
2018-09-17T07:20:44.596Z,16.40
2018-09-17T07:23:13.140Z,16.50
2018-09-17T07:25:42.938Z,16.60
2018-09-17T07:28:13.200Z,16.70
2018-09-17T07:30:43.406Z,16.90
2018-09-17T07:33:12.107Z,17.00
2018-09-17T07:35:40.681Z,17.10
2018-09-17T07:38:09.235Z,17.30
2018-09-17T07:40:37.785Z,17.40
2018-09-17T07:43:06.628Z,17.50
2018-09-17T07:45:35.391Z,17.60
2018-09-17T07:48:03.955Z,17.80
2018-09-17T07:50:32.517Z,17.90
2018-09-17T07:53:01.048Z,18.00
2018-09-17T07:55:29.611Z,18.20
2018-09-17T07:57:58.157Z,18.30
2018-09-17T08:00:26.711Z,18.40
2018-09-17T08:02:55.862Z,18.60
2018-09-17T08:05:24.480Z,18.60
2018-09-17T08:07:53.280Z,18.70
2018-09-17T08:10:25.170Z,18.90
2018-09-17T08:13:00.513Z,19.00
2018-09-17T08:15:29.348Z,19.10
2018-09-17T08:17:58.340Z,19.20
2018-09-17T08:20:27.266Z,19.30
2018-09-17T08:22:55.924Z,19.30
2018-09-17T08:25:24.519Z,19.40
2018-09-17T08:27:53.035Z,19.50
2018-09-17T08:30:22.235Z,19.60
2018-09-17T08:32:50.777Z,19.70
2018-09-17T08:35:19.906Z,19.80
2018-09-17T08:37:48.476Z,19.90
2018-09-17T08:40:17.023Z,19.90
2018-09-17T08:42:45.595Z,20.00
2018-09-17T08:45:14.811Z,20.20
2018-09-17T08:47:43.406Z,20.30
2018-09-17T08:50:11.959Z,20.40
2018-09-17T08:52:40.595Z,20.40
2018-09-17T08:55:10.511Z,20.50
2018-09-17T08:57:44.560Z,20.60
2018-09-17T09:00:18.847Z,20.70
2018-09-17T09:02:56.517Z,20.90
2018-09-17T09:05:30.379Z,21.00
2018-09-17T09:07:58.892Z,21.10
2018-09-17T09:10:32.884Z,21.20
2018-09-17T09:13:06.660Z,21.30
2018-09-17T09:15:39.124Z,21.40
2018-09-17T09:18:08.665Z,21.50
2018-09-17T09:20:38.016Z,21.60
2018-09-17T09:23:07.272Z,21.70
2018-09-17T09:25:36.084Z,21.80
2018-09-17T09:28:04.611Z,21.90
2018-09-17T09:30:35.519Z,22.00
2018-09-17T09:33:04.433Z,22.10
2018-09-17T09:35:32.952Z,22.10
2018-09-17T09:38:01.575Z,22.30
2018-09-17T09:40:30.143Z,22.40
2018-09-17T09:42:58.656Z,22.50
2018-09-17T09:45:27.183Z,22.50
2018-09-17T09:47:55.831Z,22.60
2018-09-17T09:50:24.609Z,22.70
2018-09-17T09:52:53.141Z,22.80
2018-09-17T09:55:21.702Z,22.90
2018-09-17T09:57:50.504Z,23.00
2018-09-17T10:00:24.500Z,23.10
2018-09-17T10:02:58.339Z,23.20
2018-09-17T10:05:27.012Z,23.40
2018-09-17T10:07:55.580Z,23.50
2018-09-17T10:11:27.673Z,23.60
2018-09-17T10:14:01.549Z,23.70
2018-09-17T10:16:30.089Z,23.70
2018-09-17T10:19:04.303Z,23.90
2018-09-17T10:21:32.877Z,24.00
2018-09-17T10:24:02.020Z,24.10
2018-09-17T10:26:30.576Z,24.20
2018-09-17T10:28:59.104Z,24.30
2018-09-17T10:31:27.636Z,24.40
2018-09-17T10:33:56.163Z,24.50
2018-09-17T10:36:24.732Z,24.60
2018-09-17T10:38:53.286Z,24.80
2018-09-17T10:41:21.817Z,25.00
2018-09-17T10:43:50.872Z,25.50
2018-09-17T10:46:19.436Z,26.20
2018-09-17T10:48:47.971Z,27.10
2018-09-17T10:51:16.527Z,28.00
2018-09-17T10:53:45.084Z,28.90
2018-09-17T10:56:13.634Z,29.70
2018-09-17T10:58:42.180Z,30.40
2018-09-17T11:01:11.292Z,31.10
2018-09-17T11:03:39.868Z,31.80
2018-09-17T11:06:09.040Z,32.40
2018-09-17T11:08:37.609Z,33.00
2018-09-17T11:11:06.756Z,33.60
2018-09-17T11:13:35.409Z,34.60
2018-09-17T11:16:10.827Z,34.90
2018-09-17T11:18:39.397Z,35.30
2018-09-17T11:21:07.924Z,35.60
2018-09-17T11:23:36.477Z,36.00
2018-09-17T11:26:05.988Z,36.50
2018-09-17T11:28:34.553Z,37.00
2018-09-17T11:31:03.061Z,37.40
2018-09-17T11:33:31.626Z,37.80
2018-09-17T11:36:00.168Z,38.10
2018-09-17T11:38:28.708Z,38.40
2018-09-17T11:40:57.243Z,38.60
2018-09-17T11:43:25.831Z,38.80
2018-09-17T11:45:54.350Z,39.10
2018-09-17T11:48:22.998Z,39.40
2018-09-17T11:50:51.503Z,39.70
2018-09-17T11:53:20.077Z,39.90
2018-09-17T11:55:48.585Z,40.20
2018-09-17T11:58:17.928Z,40.90
2018-09-17T12:00:51.997Z,41.00
2018-09-17T12:03:25.847Z,41.00
2018-09-17T12:06:04.707Z,41.10
2018-09-17T12:08:33.266Z,41.20
2018-09-17T12:11:01.777Z,41.50
2018-09-17T12:13:30.350Z,41.90
2018-09-17T12:15:58.996Z,42.20
2018-09-17T12:18:27.600Z,42.40
2018-09-17T12:20:56.154Z,42.70
2018-09-17T12:23:24.858Z,43.00
2018-09-17T12:25:53.716Z,43.50
2018-09-17T12:28:22.619Z,43.90
2018-09-17T12:30:51.244Z,44.20
2018-09-17T12:33:19.824Z,44.40
2018-09-17T12:35:48.374Z,44.70
2018-09-17T12:38:16.923Z,44.80
2018-09-17T12:40:45.581Z,44.80
2018-09-17T12:43:14.092Z,44.90
2018-09-17T12:45:42.766Z,45.00
2018-09-17T12:48:11.335Z,45.20
2018-09-17T12:50:40.023Z,45.30
2018-09-17T12:53:08.921Z,45.30
2018-09-17T12:55:38.304Z,45.50
2018-09-17T12:58:07.091Z,45.60
2018-09-17T13:00:35.632Z,45.70
2018-09-17T13:03:04.300Z,45.90
2018-09-17T13:05:32.841Z,46.20
2018-09-17T13:08:01.753Z,46.30
2018-09-17T13:10:30.900Z,46.60
2018-09-17T13:13:00.027Z,46.70
2018-09-17T13:15:29.098Z,46.50
2018-09-17T13:17:57.994Z,46.50
2018-09-17T13:20:26.575Z,46.30
2018-09-17T13:22:55.168Z,46.30
2018-09-17T13:25:23.782Z,46.40
2018-09-17T13:27:52.336Z,46.60
2018-09-17T13:30:21.748Z,46.90
2018-09-17T13:32:50.297Z,47.20
2018-09-17T13:35:19.008Z,47.30
2018-09-17T13:37:48.078Z,47.40
2018-09-17T13:40:16.931Z,47.40
2018-09-17T13:42:46.290Z,47.50
2018-09-17T13:45:16.297Z,47.50
2018-09-17T13:47:45.325Z,47.60
2018-09-17T13:50:14.452Z,47.70
2018-09-17T13:52:43.249Z,47.80
2018-09-17T13:55:11.953Z,48.00
2018-09-17T13:57:40.537Z,48.20
2018-09-17T14:00:09.170Z,48.30
2018-09-17T14:02:37.695Z,48.50
2018-09-17T14:05:06.389Z,48.50
2018-09-17T14:07:35.716Z,48.50
2018-09-17T14:10:04.435Z,48.60
2018-09-17T14:12:33.000Z,48.70
2018-09-17T14:15:02.071Z,48.80
2018-09-17T14:17:30.969Z,48.90
2018-09-17T14:19:59.861Z,49.00
2018-09-17T14:22:28.484Z,49.00
2018-09-17T14:24:57.118Z,49.00
2018-09-17T14:27:25.738Z,49.00
2018-09-17T14:29:54.315Z,49.00
2018-09-17T14:32:28.183Z,48.90
2018-09-17T14:34:56.750Z,49.00
2018-09-17T14:37:25.324Z,49.00
2018-09-17T14:39:53.875Z,49.00
2018-09-17T14:42:22.410Z,49.00
2018-09-17T14:44:50.966Z,48.90
2018-09-17T14:47:19.499Z,49.00
2018-09-17T14:49:48.058Z,49.10
2018-09-17T14:52:16.663Z,49.10
2018-09-17T14:54:45.291Z,49.10
2018-09-17T14:57:13.749Z,49.10
2018-09-17T14:59:42.349Z,49.10
2018-09-17T15:02:11.112Z,49.30
2018-09-17T15:04:39.923Z,49.30
2018-09-17T15:07:08.495Z,49.30
2018-09-17T15:09:37.013Z,49.20
2018-09-17T15:12:05.570Z,49.30
2018-09-17T15:14:34.223Z,49.30
2018-09-17T15:17:02.741Z,49.10
2018-09-17T15:19:32.667Z,48.80
2018-09-17T15:22:01.129Z,48.60
2018-09-17T15:24:29.722Z,48.30
2018-09-17T15:26:58.307Z,48.10
2018-09-17T15:29:26.826Z,48.10
2018-09-17T15:31:55.409Z,48.10
2018-09-17T15:34:24.041Z,48.00
2018-09-17T15:36:52.555Z,47.80
2018-09-17T15:39:21.127Z,47.60
2018-09-17T15:41:49.790Z,47.20
2018-09-17T15:44:18.363Z,46.90
2018-09-17T15:46:46.923Z,46.70
2018-09-17T15:49:22.235Z,46.40
2018-09-17T15:51:50.878Z,46.10
2018-09-17T15:54:19.424Z,45.90
2018-09-17T15:56:47.955Z,45.80
2018-09-17T15:59:16.488Z,45.80
2018-09-17T16:01:45.068Z,45.80
2018-09-17T16:04:13.621Z,45.90
2018-09-17T16:06:42.259Z,45.90
2018-09-17T16:09:11.075Z,45.90
2018-09-17T16:11:39.609Z,45.80
2018-09-17T16:14:08.186Z,45.60
2018-09-17T16:16:36.730Z,45.40
2018-09-17T16:19:05.473Z,45.40
2018-09-17T16:21:34.348Z,45.30
2018-09-17T16:24:02.920Z,45.20
2018-09-17T16:26:31.455Z,45.10
2018-09-17T16:29:00.086Z,44.90
2018-09-17T16:31:28.596Z,44.70
2018-09-17T16:33:57.236Z,44.50
2018-09-17T16:36:26.325Z,44.30
2018-09-17T16:38:55.096Z,44.00
2018-09-17T16:41:23.674Z,43.50
2018-09-17T16:43:52.225Z,43.00
2018-09-17T16:46:20.806Z,42.60
2018-09-17T16:48:49.462Z,42.30
2018-09-17T16:51:17.965Z,42.00
2018-09-17T16:53:46.649Z,41.70
2018-09-17T16:56:16.471Z,41.10
2018-09-17T16:58:45.433Z,40.20
2018-09-17T17:01:15.680Z,38.90
2018-09-17T17:03:44.430Z,37.70
2018-09-17T17:06:13.082Z,36.50
2018-09-17T17:08:41.772Z,35.40
2018-09-17T17:11:10.331Z,34.50
2018-09-17T17:13:38.946Z,33.60
2018-09-17T17:16:07.473Z,33.00
2018-09-17T17:18:36.096Z,32.30
2018-09-17T17:21:04.717Z,31.70
2018-09-17T17:23:33.270Z,31.20
2018-09-17T17:26:01.797Z,30.60
2018-09-17T17:28:30.412Z,30.20
2018-09-17T17:30:58.935Z,29.70
2018-09-17T17:33:27.463Z,29.30
2018-09-17T17:35:56.028Z,28.90
2018-09-17T17:38:24.568Z,28.60
2018-09-17T17:40:53.103Z,28.20
2018-09-17T17:43:21.661Z,27.90
2018-09-17T17:45:50.494Z,27.60
2018-09-17T17:48:19.039Z,27.30
2018-09-17T17:50:47.580Z,27.00
2018-09-17T17:53:16.143Z,26.80
2018-09-17T17:55:44.691Z,26.60
2018-09-17T17:58:13.255Z,26.40
2018-09-17T18:00:41.791Z,26.20
2018-09-17T18:03:10.320Z,26.00
2018-09-17T18:05:39.132Z,25.70
2018-09-17T18:08:07.655Z,25.60
2018-09-17T18:10:36.198Z,25.40
2018-09-17T18:13:05.657Z,25.20
2018-09-17T18:15:34.193Z,25.10
2018-09-17T18:18:02.783Z,24.90
2018-09-17T18:20:31.338Z,24.70
2018-09-17T18:23:00.161Z,24.60
2018-09-17T18:25:28.784Z,24.50
2018-09-17T18:27:57.439Z,24.30
2018-09-17T18:30:26.105Z,24.20
2018-09-17T18:32:54.667Z,24.10
2018-09-17T18:35:24.066Z,23.90
2018-09-17T18:37:52.675Z,23.80
2018-09-17T18:40:21.243Z,23.60
2018-09-17T18:42:49.848Z,23.50
2018-09-17T18:45:18.380Z,23.40
2018-09-17T18:47:46.923Z,23.30
2018-09-17T18:50:15.516Z,23.20
2018-09-17T18:52:44.663Z,23.10
2018-09-17T18:55:13.542Z,22.90
2018-09-17T18:57:42.144Z,22.80
2018-09-17T19:00:11.079Z,22.70
2018-09-17T19:02:39.650Z,22.50
2018-09-17T19:05:08.182Z,22.40
2018-09-17T19:07:36.796Z,22.30
2018-09-17T19:10:05.378Z,22.20
2018-09-17T19:12:33.914Z,22.10
2018-09-17T19:15:08.321Z,22.00
2018-09-17T19:17:41.095Z,21.90
2018-09-17T19:20:11.356Z,21.80
2018-09-17T19:22:45.214Z,21.70
2018-09-17T19:25:16.159Z,21.60
2018-09-17T19:27:50.146Z,21.40
2018-09-17T19:30:18.783Z,21.40
2018-09-17T19:32:47.248Z,21.30
2018-09-17T19:35:15.795Z,21.20
2018-09-17T19:37:49.766Z,21.10
2018-09-17T19:40:19.639Z,21.00
2018-09-17T19:42:49.158Z,21.00
2018-09-17T19:45:23.351Z,20.90
2018-09-17T19:47:52.754Z,20.80
2018-09-17T19:50:26.900Z,20.80
2018-09-17T19:52:55.468Z,20.70
2018-09-17T19:55:24.280Z,20.70
2018-09-17T19:57:58.509Z,20.60
2018-09-17T20:00:27.498Z,20.50
2018-09-17T20:02:56.149Z,20.50
2018-09-17T20:05:30.653Z,20.50
2018-09-17T20:07:59.296Z,20.40
2018-09-17T20:10:27.966Z,20.40
2018-09-17T20:12:57.115Z,20.30
2018-09-17T20:15:25.760Z,20.30
2018-09-17T20:17:54.303Z,20.20
2018-09-17T20:20:22.860Z,20.20
2018-09-17T20:22:51.817Z,20.10
2018-09-17T20:25:20.585Z,20.10
2018-09-17T20:27:51.206Z,20.00
2018-09-17T20:30:19.904Z,20.00
2018-09-17T20:32:48.871Z,19.90
2018-09-17T20:35:17.739Z,19.90
2018-09-17T20:37:46.418Z,19.90
2018-09-17T20:40:14.932Z,19.80
2018-09-17T20:42:44.741Z,19.80
2018-09-17T20:45:14.137Z,19.70
2018-09-17T20:47:42.713Z,19.70
2018-09-17T20:50:11.903Z,19.60
2018-09-17T20:52:40.644Z,19.50
2018-09-17T20:55:09.419Z,19.40
2018-09-17T20:57:38.172Z,19.30
2018-09-17T21:00:06.779Z,19.30
2018-09-17T21:02:35.405Z,19.20
2018-09-17T21:05:04.112Z,19.10
2018-09-17T21:07:32.750Z,19.10
2018-09-17T21:10:01.347Z,19.00
2018-09-17T21:12:29.982Z,18.90
2018-09-17T21:14:58.479Z,18.90
2018-09-17T21:17:27.101Z,18.80
2018-09-17T21:19:56.372Z,18.70
2018-09-17T21:22:24.932Z,18.70
2018-09-17T21:24:53.736Z,18.60
2018-09-17T21:27:22.386Z,18.60
2018-09-17T21:29:50.898Z,18.50
2018-09-17T21:32:19.511Z,18.50
2018-09-17T21:34:48.040Z,18.40
2018-09-17T21:37:16.627Z,18.40
2018-09-17T21:39:45.147Z,18.30
2018-09-17T21:42:13.684Z,18.30
2018-09-17T21:44:42.211Z,18.30
2018-09-17T21:47:10.761Z,18.30
2018-09-17T21:49:39.341Z,18.20
2018-09-17T21:52:07.899Z,18.20
2018-09-17T21:54:36.464Z,18.10
2018-09-17T21:57:05.086Z,18.10
2018-09-17T21:59:33.666Z,18.00
2018-09-17T22:02:02.227Z,17.90
2018-09-17T22:04:30.832Z,17.90
2018-09-17T22:06:59.378Z,17.80
2018-09-17T22:09:27.908Z,17.80
2018-09-17T22:11:56.438Z,17.70
2018-09-17T22:14:25.295Z,17.70
2018-09-17T22:16:53.810Z,17.70
2018-09-17T22:19:22.333Z,17.70
2018-09-17T22:21:50.867Z,17.80
2018-09-17T22:24:19.414Z,17.90
2018-09-17T22:26:47.949Z,17.90
2018-09-17T22:29:16.505Z,17.90
2018-09-17T22:31:45.041Z,17.90
2018-09-17T22:34:13.595Z,17.90
2018-09-17T22:36:42.183Z,17.90
2018-09-17T22:39:11.776Z,17.80
2018-09-17T22:41:40.756Z,17.80
2018-09-17T22:44:09.295Z,17.70
2018-09-17T22:46:37.835Z,17.70
2018-09-17T22:49:07.042Z,17.60
2018-09-17T22:51:35.557Z,17.50
2018-09-17T22:54:04.131Z,17.50
2018-09-17T22:56:32.655Z,17.40
2018-09-17T22:59:01.276Z,17.30
2018-09-17T23:01:29.805Z,17.30
2018-09-17T23:03:58.362Z,17.20
2018-09-17T23:06:26.895Z,17.20
2018-09-17T23:08:55.451Z,17.10
2018-09-17T23:11:24.372Z,17.10
2018-09-17T23:13:53.249Z,17.00
2018-09-17T23:16:21.798Z,17.00
2018-09-17T23:18:50.331Z,16.90
2018-09-17T23:21:18.881Z,16.90
2018-09-17T23:23:47.438Z,16.80
2018-09-17T23:26:15.962Z,16.80
2018-09-17T23:28:44.537Z,16.70
2018-09-17T23:31:13.464Z,16.70
2018-09-17T23:33:42.013Z,16.70
2018-09-17T23:36:10.523Z,16.70
2018-09-17T23:38:39.432Z,16.70
2018-09-17T23:41:07.945Z,16.80
2018-09-17T23:43:36.528Z,16.80
2018-09-17T23:46:05.082Z,16.80
2018-09-17T23:48:33.636Z,16.70
2018-09-17T23:51:02.178Z,16.70
2018-09-17T23:53:30.717Z,16.60
2018-09-17T23:55:59.323Z,16.60
2018-09-17T23:58:27.927Z,16.50
